Time;durP1;ratioP1;P1;durP2;ratioP2;P2;SDS_P1;SDS_P2;PMS_P1;PMS_P2;Temp;Humidity;BMP_temperature;BMP_pressure;BME280_temperature;BME280_humidity;BME280_pressure;Samples;Min_cycle;Max_cycle;Signal;HPM_P1;HPM_P2
2023/05/25 00:01:42;;;;;;;;;;;;;;;;;;5103439;28;19928;-77
2023/05/25 00:04:10;;;;;;;;;;;;;;;;;;5102701;28;19920;-77
2023/05/25 00:06:40;;;;;;;;;;;;;;;;;;5096572;28;21759;-80
2023/05/25 00:09:07;;;;;;;;;;;;;;;;;;5100185;28;19927;-78
2023/05/25 00:11:35;;;;;;;;;;;;;;;;;;5099007;28;19923;-78
2023/05/25 00:14:02;;;;;;;;;;;;;;;;;;5089406;28;19935;-76
2023/05/25 00:16:30;;;;;;;;;;;;;;;;;;5084852;28;19927;-77
2023/05/25 00:18:58;;;;;;;;;;;;;;;;;;5099968;28;20300;-79
2023/05/25 00:21:26;;;;;;;;;;;;;;;;;;5096550;28;19924;-77
2023/05/25 00:23:53;;;;;;;;;;;;;;;;;;5096616;28;19923;-76
2023/05/25 00:26:26;;;;;;;;;;;;;;;;;;5096245;28;20529;-77
2023/05/25 00:28:53;;;;;;;;;;;;;;;;;;5088011;28;19924;-78
2023/05/25 00:31:21;;;;;;;;;;;;;;;;;;5103457;28;19920;-77
2023/05/25 00:33:49;;;;;;;;;;;;;;;;;;5089360;28;20384;-78
2023/05/25 00:36:16;;;;;;;;;;;;;;;;;;5101693;28;19938;-79
2023/05/25 00:38:44;;;;;;;;;;;;;;;;;;5081570;28;19927;-78
2023/05/25 00:41:11;;;;;;;;;;;;;;;;;;5102888;28;19928;-78
2023/05/25 00:43:44;;;;;;;;;;;;;;;;;;5082675;28;19928;-76
2023/05/25 00:46:13;;;;;;;;;;;;;;;;;;5087244;28;19934;-78
2023/05/25 00:48:40;;;;;;;;;;;;;;;;;;5099912;28;19919;-81
2023/05/25 00:51:08;;;;;;;;;;;;;;;;;;5090535;28;20561;-77
2023/05/25 00:53:41;;;;;;;;;;;;;;;;;;5090841;28;19946;-78
2023/05/25 00:56:14;;;;;;;;;;;;;;;;;;5090356;28;19920;-76
2023/05/25 00:58:41;;;;;;;;;;;;;;;;;;5101389;27;19920;-79
2023/05/25 01:01:16;;;;;;;;;;;;;;;;;;5101377;28;19927;-78
2023/05/25 01:03:52;;;;;;;;;;;;;;;;;;5079317;28;20264;-77
2023/05/25 01:06:25;;;;;;;;;;;;;;;;;;5101821;28;20383;-78
2023/05/25 01:08:53;;;;;;;;;;;;;;;;;;5086764;28;20654;-76
2023/05/25 01:11:25;;;;;;;;;;;;;;;;;;5085026;28;19920;-78
2023/05/25 01:13:53;;;;;;;;;;;;;;;;;;5099040;28;19923;-77
2023/05/25 01:16:20;;;;;;;;;;;;;;;;;;5099736;28;19920;-76
2023/05/25 01:18:51;;;;;;;;;;;;;;;;;;5082408;28;19928;-77
2023/05/25 01:21:19;;;;;;;;;;;;;;;;;;5100130;28;19934;-78
2023/05/25 01:23:46;;;;;;;;;;;;;;;;;;5102067;28;20635;-78
2023/05/25 01:26:14;;;;;;;;;;;;;;;;;;5078253;28;19923;-77
2023/05/25 01:28:46;;;;;;;;;;;;;;;;;;5084182;28;19927;-76
2023/05/25 01:31:14;;;;;;;;;;;;;;;;;;5092933;28;20257;-77
2023/05/25 01:33:41;;;;;;;;;;;;;;;;;;5090318;28;20268;-77
2023/05/25 01:36:09;;;;;;;;;;;;;;;;;;5089388;28;19920;-77
2023/05/25 01:38:36;;;;;;;;;;;;;;;;;;5085163;28;19920;-76
2023/05/25 01:41:10;;;;;;;;;;;;;;;;;;5088575;28;20383;-77
2023/05/25 01:43:43;;;;;;;;;;;;;;;;;;5103851;28;19927;-80
2023/05/25 01:46:10;;;;;;;;;;;;;;;;;;5082979;28;19927;-77
2023/05/25 01:48:38;;;;;;;;;;;;;;;;;;5097671;27;19920;-76
2023/05/25 01:51:05;;;;;;;;;;;;;;;;;;5083379;28;20391;-78
2023/05/25 01:53:38;;;;;;;;;;;;;;;;;;5090308;28;19920;-76
2023/05/25 01:56:07;;;;;;;;;;;;;;;;;;5091017;28;19926;-77
2023/05/25 01:58:34;;;;;;;;;;;;;;;;;;5085120;28;19931;-77
2023/05/25 02:01:03;;;;;;;;;;;;;;;;;;5088410;28;19924;-78
2023/05/25 02:03:30;;;;;;;;;;;;;;;;;;5099299;28;19919;-78
2023/05/25 02:05:58;;;;;;;;;;;;;;;;;;5100183;28;19935;-76
2023/05/25 02:08:25;;;;;;;;;;;;;;;;;;5090821;28;20296;-76
2023/05/25 02:10:53;;;;;;;;;;;;;;;;;;5108159;28;19920;-78
2023/05/25 02:13:20;;;;;;;;;;;;;;;;;;5093197;28;20316;-77
2023/05/25 02:15:53;;;;;;;;;;;;;;;;;;5109556;27;19927;-77
2023/05/25 02:18:21;;;;;;;;;;;;;;;;;;5085688;28;19927;-78
2023/05/25 02:20:49;;;;;;;;;;;;;;;;;;5093780;28;19942;-78
2023/05/25 02:23:18;;;;;;;;;;;;;;;;;;5090219;28;19919;-77
2023/05/25 02:25:51;;;;;;;;;;;;;;;;;;5103815;28;19919;-76
2023/05/25 02:28:18;;;;;;;;;;;;;;;;;;5096350;28;19926;-76
2023/05/25 02:30:46;;;;;;;;;;;;;;;;;;5094662;28;20284;-77
2023/05/25 02:33:13;;;;;;;;;;;;;;;;;;5086690;28;19927;-77
2023/05/25 02:35:41;;;;;;;;;;;;;;;;;;5094884;28;19920;-76
2023/05/25 02:38:10;;;;;;;;;;;;;;;;;;5087708;28;19951;-78
2023/05/25 02:40:37;;;;;;;;;;;;;;;;;;5086758;28;19919;-76
2023/05/25 02:43:05;;;;;;;;;;;;;;;;;;5087765;28;20356;-77
2023/05/25 02:45:38;;;;;;;;;;;;;;;;;;5095854;28;19928;-77
2023/05/25 02:48:05;;;;;;;;;;;;;;;;;;5086059;28;19947;-78
2023/05/25 02:50:34;;;;;;;;;;;;;;;;;;5092706;28;19923;-78
2023/05/25 02:53:05;;;;;;;;;;;;;;;;;;5103988;28;19923;-77
2023/05/25 02:55:33;;;;;;;;;;;;;;;;;;5086674;28;19924;-77
2023/05/25 02:58:00;;;;;;;;;;;;;;;;;;5089589;28;19939;-78
2023/05/25 03:00:46;;;;;;;;;;;;;;;;;;5083470;28;19919;-78
2023/05/25 03:03:14;;;;;;;;;;;;;;;;;;5082305;28;19924;-79
2023/05/25 03:05:42;;;;;;;;;;;;;;;;;;5087952;28;19920;-77
2023/05/25 03:08:14;;;;;;;;;;;;;;;;;;5096098;28;19994;-77
2023/05/25 03:10:42;;;;;;;;;;;;;;;;;;5092743;28;20287;-77
2023/05/25 03:13:10;;;;;;;;;;;;;;;;;;5091079;28;19919;-77
2023/05/25 03:15:43;;;;;;;;;;;;;;;;;;5088892;28;20342;-77
2023/05/25 03:18:10;;;;;;;;;;;;;;;;;;5096357;28;19920;-76
2023/05/25 03:20:40;;;;;;;;;;;;;;;;;;5088986;28;19927;-76
2023/05/25 03:23:07;;;;;;;;;;;;;;;;;;5094825;28;20275;-77
2023/05/25 03:25:35;;;;;;;;;;;;;;;;;;5091804;28;19928;-76
2023/05/25 03:28:03;;;;;;;;;;;;;;;;;;5084309;28;20654;-77
2023/05/25 03:30:31;;;;;;;;;;;;;;;;;;5085594;28;19930;-76
2023/05/25 03:32:58;;;;;;;;;;;;;;;;;;5093068;28;19927;-77
2023/05/25 03:35:31;;;;;;;;;;;;;;;;;;5083027;28;19927;-77
2023/05/25 03:37:59;;;;;;;;;;;;;;;;;;5097874;28;19924;-77
2023/05/25 03:40:32;;;;;;;;;;;;;;;;;;5090547;28;19927;-76
2023/05/25 03:42:59;;;;;;;;;;;;;;;;;;5104212;28;19920;-77
2023/05/25 03:45:27;;;;;;;;;;;;;;;;;;5086461;28;19919;-77
2023/05/25 03:47:54;;;;;;;;;;;;;;;;;;5103348;28;19920;-76
2023/05/25 03:50:22;;;;;;;;;;;;;;;;;;5091927;28;19927;-76
2023/05/25 03:52:54;;;;;;;;;;;;;;;;;;5090349;28;19920;-77
2023/05/25 03:55:27;;;;;;;;;;;;;;;;;;5085040;28;19920;-76
2023/05/25 03:57:55;;;;;;;;;;;;;;;;;;5108798;28;19930;-77
2023/05/25 04:00:22;;;;;;;;;;;;;;;;;;5096508;28;19920;-77
2023/05/25 04:02:50;;;;;;;;;;;;;;;;;;5095744;28;19924;-78
2023/05/25 04:05:18;;;;;;;;;;;;;;;;;;5115872;28;19920;-77
2023/05/25 04:07:45;;;;;;;;;;;;;;;;;;5112909;28;19927;-78
2023/05/25 04:10:13;;;;;;;;;;;;;;;;;;5091691;28;19920;-79
2023/05/25 04:12:40;;;;;;;;;;;;;;;;;;5095713;28;19920;-77
2023/05/25 04:15:13;;;;;;;;;;;;;;;;;;5086721;28;19927;-78
2023/05/25 04:17:58;;;;;;;;;;;;;;;;;;5089699;27;19927;-76
2023/05/25 04:20:26;;;;;;;;;;;;;;;;;;5085921;28;19924;-77
2023/05/25 04:22:54;;;;;;;;;;;;;;;;;;5094825;28;20386;-77
2023/05/25 04:25:27;;;;;;;;;;;;;;;;;;5098196;28;19924;-75
2023/05/25 04:27:55;;;;;;;;;;;;;;;;;;5110294;28;20382;-76
2023/05/25 04:30:40;;;;;;;;;;;;;;;;;;5100373;28;19934;-78
2023/05/25 04:33:19;;;;;;;;;;;;;;;;;;5083249;28;19920;-77
2023/05/25 04:36:02;;;;;;;;;;;;;;;;;;5111521;28;19926;-76
2023/05/25 04:38:32;;;;;;;;;;;;;;;;;;5088544;28;20563;-76
2023/05/25 04:41:05;;;;;;;;;;;;;;;;;;5099497;28;20774;-77
2023/05/25 04:43:33;;;;;;;;;;;;;;;;;;5088434;28;19920;-77
2023/05/25 04:46:01;;;;;;;;;;;;;;;;;;5087288;28;19920;-77
2023/05/25 04:48:31;;;;;;;;;;;;;;;;;;5083879;28;19924;-78
2023/05/25 04:51:01;;;;;;;;;;;;;;;;;;5084964;28;19986;-75
2023/05/25 04:53:31;;;;;;;;;;;;;;;;;;5104596;28;19920;-76
2023/05/25 04:55:58;;;;;;;;;;;;;;;;;;5097668;28;20269;-77
2023/05/25 04:58:32;;;;;;;;;;;;;;;;;;5085240;28;20712;-80
2023/05/25 05:00:59;;;;;;;;;;;;;;;;;;5095551;28;19927;-77
2023/05/25 05:03:27;;;;;;;;;;;;;;;;;;5087545;28;19931;-79
2023/05/25 05:05:55;;;;;;;;;;;;;;;;;;5101242;28;19927;-80
2023/05/25 05:08:26;;;;;;;;;;;;;;;;;;5092959;27;19920;-78
2023/05/25 05:10:59;;;;;;;;;;;;;;;;;;5090366;28;20414;-78
2023/05/25 05:13:27;;;;;;;;;;;;;;;;;;5090650;28;19935;-79
2023/05/25 05:15:56;;;;;;;;;;;;;;;;;;5083900;28;19947;-78
2023/05/25 05:18:28;;;;;;;;;;;;;;;;;;5090557;28;19923;-78
2023/05/25 05:20:56;;;;;;;;;;;;;;;;;;5089533;28;19920;-79
2023/05/25 05:23:29;;;;;;;;;;;;;;;;;;5084780;28;19927;-79
2023/05/25 05:26:03;;;;;;;;;;;;;;;;;;5097341;28;20276;-77
2023/05/25 05:28:31;;;;;;;;;;;;;;;;;;5092019;28;20387;-79
2023/05/25 05:30:58;;;;;;;;;;;;;;;;;;5088000;28;19998;-78
2023/05/25 05:33:26;;;;;;;;;;;;;;;;;;5088158;28;19927;-79
2023/05/25 05:35:54;;;;;;;;;;;;;;;;;;5086807;28;20375;-78
2023/05/25 05:38:26;;;;;;;;;;;;;;;;;;5093223;28;19926;-80
2023/05/25 05:40:54;;;;;;;;;;;;;;;;;;5080710;27;20379;-77
2023/05/25 05:43:22;;;;;;;;;;;;;;;;;;5099887;28;19919;-76
2023/05/25 05:45:50;;;;;;;;;;;;;;;;;;5083289;28;19920;-82
2023/05/25 05:48:18;;;;;;;;;;;;;;;;;;5098778;28;19927;-80
2023/05/25 05:50:45;;;;;;;;;;;;;;;;;;5089174;28;20563;-79
2023/05/25 05:53:13;;;;;;;;;;;;;;;;;;5091438;28;20249;-80
2023/05/25 05:55:46;;;;;;;;;;;;;;;;;;5089041;28;19926;-79
2023/05/25 05:58:14;;;;;;;;;;;;;;;;;;5085130;28;19935;-79
2023/05/25 06:00:42;;;;;;;;;;;;;;;;;;5083745;28;19920;-78
2023/05/25 06:03:09;;;;;;;;;;;;;;;;;;5097609;27;19927;-80
2023/05/25 06:05:42;;;;;;;;;;;;;;;;;;5088688;28;20293;-78
2023/05/25 06:08:10;;;;;;;;;;;;;;;;;;5100374;27;19924;-80
2023/05/25 06:10:38;;;;;;;;;;;;;;;;;;5096793;28;20380;-78
2023/05/25 06:13:10;;;;;;;;;;;;;;;;;;5086385;28;19920;-79
2023/05/25 06:15:38;;;;;;;;;;;;;;;;;;5085370;28;21417;-80
2023/05/25 06:18:09;;;;;;;;;;;;;;;;;;5078326;28;19928;-81
2023/05/25 06:20:37;;;;;;;;;;;;;;;;;;5076492;28;19920;-78
2023/05/25 06:23:12;;;;;;;;;;;;;;;;;;5087838;28;19928;-81
2023/05/25 06:25:40;;;;;;;;;;;;;;;;;;5088703;28;19920;-77
2023/05/25 06:28:07;;;;;;;;;;;;;;;;;;5079100;28;19920;-79
2023/05/25 06:30:35;;;;;;;;;;;;;;;;;;5084618;28;19920;-80
2023/05/25 06:33:03;;;;;;;;;;;;;;;;;;5084573;28;19923;-78
2023/05/25 06:35:31;;;;;;;;;;;;;;;;;;5086265;28;19924;-80
2023/05/25 06:38:05;;;;;;;;;;;;;;;;;;5086341;28;19919;-79
2023/05/25 06:40:32;;;;;;;;;;;;;;;;;;5097599;28;20595;-78
2023/05/25 06:43:00;;;;;;;;;;;;;;;;;;5077296;28;19924;-77
2023/05/25 06:46:03;;;;;;;;;;;;;;;;;;5087491;28;19919;-78
2023/05/25 06:48:30;;;;;;;;;;;;;;;;;;5084755;28;19920;-79
2023/05/25 06:50:58;;;;;;;;;;;;;;;;;;5085575;28;20295;-79
2023/05/25 06:53:25;;;;;;;;;;;;;;;;;;5090546;28;19924;-79
2023/05/25 06:55:53;;;;;;;;;;;;;;;;;;5102296;28;19920;-79
2023/05/25 06:58:20;;;;;;;;;;;;;;;;;;5082107;28;19919;-80
2023/05/25 07:00:48;;;;;;;;;;;;;;;;;;5087142;28;19939;-79
2023/05/25 07:03:16;;;;;;;;;;;;;;;;;;5095104;28;20295;-80
2023/05/25 07:05:43;;;;;;;;;;;;;;;;;;5081370;28;19923;-84
2023/05/25 07:08:16;;;;;;;;;;;;;;;;;;5079863;28;20382;-79
2023/05/25 07:10:48;;;;;;;;;;;;;;;;;;5097226;28;19931;-81
2023/05/25 07:13:16;;;;;;;;;;;;;;;;;;5079802;28;19927;-80
2023/05/25 07:15:43;;;;;;;;;;;;;;;;;;5080062;28;19928;-80
2023/05/25 07:18:16;;;;;;;;;;;;;;;;;;5071376;28;19928;-83
2023/05/25 07:20:43;;;;;;;;;;;;;;;;;;5070162;28;19934;-81
2023/05/25 07:23:11;;;;;;;;;;;;;;;;;;5070025;28;20460;-79
2023/05/25 07:25:38;;;;;;;;;;;;;;;;;;5092603;28;21935;-81
2023/05/25 07:28:06;;;;;;;;;;;;;;;;;;5078754;28;19934;-81
2023/05/25 07:30:39;;;;;;;;;;;;;;;;;;5071009;28;19935;-82
2023/05/25 07:33:06;;;;;;;;;;;;;;;;;;5081904;28;19927;-81
2023/05/25 07:35:34;;;;;;;;;;;;;;;;;;5086164;28;19928;-81
2023/05/25 07:38:03;;;;;;;;;;;;;;;;;;5083862;28;19924;-82
2023/05/25 07:40:30;;;;;;;;;;;;;;;;;;5072379;28;19942;-82
2023/05/25 07:42:58;;;;;;;;;;;;;;;;;;5071632;28;19919;-79
2023/05/25 07:45:25;;;;;;;;;;;;;;;;;;5073758;28;19938;-80
2023/05/25 07:47:58;;;;;;;;;;;;;;;;;;5065703;28;20373;-79
2023/05/25 07:50:26;;;;;;;;;;;;;;;;;;5083641;28;19935;-80
2023/05/25 07:52:53;;;;;;;;;;;;;;;;;;5076150;28;19919;-82
2023/05/25 07:55:21;;;;;;;;;;;;;;;;;;5076253;28;19928;-82
2023/05/25 07:57:48;;;;;;;;;;;;;;;;;;5088337;28;19931;-81
2023/05/25 08:00:16;;;;;;;;;;;;;;;;;;5069650;28;19974;-80
2023/05/25 08:02:43;;;;;;;;;;;;;;;;;;5070025;28;19927;-80
2023/05/25 08:05:11;;;;;;;;;;;;;;;;;;5073601;28;19928;-82
2023/05/25 08:07:39;;;;;;;;;;;;;;;;;;5074372;28;19927;-81
2023/05/25 08:10:06;;;;;;;;;;;;;;;;;;5066087;28;20520;-79
2023/05/25 08:12:34;;;;;;;;;;;;;;;;;;5075966;28;19927;-80
2023/05/25 08:15:01;;;;;;;;;;;;;;;;;;5090804;28;19928;-80
2023/05/25 08:17:29;;;;;;;;;;;;;;;;;;5068310;28;19934;-79
2023/05/25 08:20:03;;;;;;;;;;;;;;;;;;5067151;28;19928;-80
2023/05/25 08:22:32;;;;;;;;;;;;;;;;;;5079948;28;19935;-78
2023/05/25 08:25:00;;;;;;;;;;;;;;;;;;5086547;27;19927;-81
2023/05/25 08:27:33;;;;;;;;;;;;;;;;;;5083474;28;19935;-78
2023/05/25 08:30:00;;;;;;;;;;;;;;;;;;5077325;27;19934;-78
2023/05/25 08:32:28;;;;;;;;;;;;;;;;;;5081670;28;19927;-77
2023/05/25 08:35:02;;;;;;;;;;;;;;;;;;5062690;28;19939;-79
2023/05/25 08:37:34;;;;;;;;;;;;;;;;;;5085983;28;20473;-81
2023/05/25 08:40:07;;;;;;;;;;;;;;;;;;5078568;27;19938;-81
2023/05/25 08:42:35;;;;;;;;;;;;;;;;;;5076057;28;19935;-77
2023/05/25 08:45:03;;;;;;;;;;;;;;;;;;5069278;28;19927;-78
2023/05/25 08:47:31;;;;;;;;;;;;;;;;;;5072287;28;19927;-79
2023/05/25 08:49:58;;;;;;;;;;;;;;;;;;5063794;28;19931;-79
2023/05/25 08:52:32;;;;;;;;;;;;;;;;;;5064730;28;20598;-79
2023/05/25 08:54:59;;;;;;;;;;;;;;;;;;5080919;27;21396;-80
2023/05/25 08:57:27;;;;;;;;;;;;;;;;;;5083101;28;19928;-81
2023/05/25 08:59:55;;;;;;;;;;;;;;;;;;5079775;28;19935;-81
2023/05/25 09:02:22;;;;;;;;;;;;;;;;;;5082123;27;19928;-79
2023/05/25 09:04:50;;;;;;;;;;;;;;;;;;5078430;28;20579;-78
2023/05/25 09:07:22;;;;;;;;;;;;;;;;;;5064137;28;19982;-80
2023/05/25 09:09:50;;;;;;;;;;;;;;;;;;5065902;28;19950;-80
2023/05/25 09:12:17;;;;;;;;;;;;;;;;;;5062932;28;19932;-82
2023/05/25 09:14:50;;;;;;;;;;;;;;;;;;5063665;28;19927;-81
2023/05/25 09:17:18;;;;;;;;;;;;;;;;;;5078148;28;19927;-81
2023/05/25 09:19:46;;;;;;;;;;;;;;;;;;5073562;28;19950;-78
2023/05/25 09:22:19;;;;;;;;;;;;;;;;;;5070236;28;19927;-79
2023/05/25 09:24:46;;;;;;;;;;;;;;;;;;5067373;27;19924;-81
2023/05/25 09:27:14;;;;;;;;;;;;;;;;;;5074080;28;19927;-77
2023/05/25 09:29:41;;;;;;;;;;;;;;;;;;5077553;28;19935;-78
2023/05/25 09:32:09;;;;;;;;;;;;;;;;;;5066422;28;19927;-78
2023/05/25 09:34:36;;;;;;;;;;;;;;;;;;5068447;28;20057;-81
2023/05/25 09:37:04;;;;;;;;;;;;;;;;;;5061779;27;19935;-81
2023/05/25 09:39:32;;;;;;;;;;;;;;;;;;5084822;27;19932;-82
2023/05/25 09:42:01;;;;;;;;;;;;;;;;;;5076930;28;21240;-77
2023/05/25 09:44:28;;;;;;;;;;;;;;;;;;5070614;28;19919;-80
2023/05/25 09:46:56;;;;;;;;;;;;;;;;;;5078552;28;20312;-78
2023/05/25 09:49:29;;;;;;;;;;;;;;;;;;5069263;28;19920;-79
2023/05/25 09:51:56;;;;;;;;;;;;;;;;;;5067535;27;19950;-80
2023/05/25 09:54:24;;;;;;;;;;;;;;;;;;5065409;28;19927;-82
2023/05/25 09:56:56;;;;;;;;;;;;;;;;;;5088390;28;21526;-79
2023/05/25 09:59:24;;;;;;;;;;;;;;;;;;5063874;28;21754;-82
2023/05/25 10:01:52;;;;;;;;;;;;;;;;;;5078907;28;19935;-79
2023/05/25 10:04:20;;;;;;;;;;;;;;;;;;5090230;27;19927;-78
2023/05/25 10:06:48;;;;;;;;;;;;;;;;;;5085328;28;19928;-82
2023/05/25 10:09:16;;;;;;;;;;;;;;;;;;5064137;28;19928;-80
2023/05/25 10:11:43;;;;;;;;;;;;;;;;;;5063379;28;19928;-83
2023/05/25 10:14:11;;;;;;;;;;;;;;;;;;5061401;28;19928;-80
2023/05/25 10:16:38;;;;;;;;;;;;;;;;;;5062902;28;19928;-81
2023/05/25 10:19:06;;;;;;;;;;;;;;;;;;5068354;28;20664;-81
2023/05/25 10:21:38;;;;;;;;;;;;;;;;;;5088522;28;19934;-80
2023/05/25 10:24:06;;;;;;;;;;;;;;;;;;5089730;27;19928;-82
2023/05/25 10:26:34;;;;;;;;;;;;;;;;;;5083858;28;19938;-83
2023/05/25 10:29:03;;;;;;;;;;;;;;;;;;5088141;27;20679;-82
2023/05/25 10:31:32;;;;;;;;;;;;;;;;;;5072078;28;19927;-80
2023/05/25 10:34:00;;;;;;;;;;;;;;;;;;5071471;28;19928;-83
2023/05/25 10:36:33;;;;;;;;;;;;;;;;;;5084073;28;20869;-80
2023/05/25 10:39:01;;;;;;;;;;;;;;;;;;5077167;28;19927;-78
2023/05/25 10:41:28;;;;;;;;;;;;;;;;;;5074034;28;19927;-81
2023/05/25 10:43:56;;;;;;;;;;;;;;;;;;5073461;28;22565;-81
2023/05/25 10:46:23;;;;;;;;;;;;;;;;;;5069733;28;19928;-79
2023/05/25 10:48:51;;;;;;;;;;;;;;;;;;5064509;28;19935;-80
2023/05/25 10:51:19;;;;;;;;;;;;;;;;;;5083915;28;19928;-78
2023/05/25 10:53:46;;;;;;;;;;;;;;;;;;5078724;28;20778;-81
2023/05/25 10:56:14;;;;;;;;;;;;;;;;;;5074100;28;19951;-82
2023/05/25 10:58:43;;;;;;;;;;;;;;;;;;5072496;28;19924;-80
2023/05/25 11:01:15;;;;;;;;;;;;;;;;;;5070829;28;19924;-80
2023/05/25 11:03:48;;;;;;;;;;;;;;;;;;5086746;28;19935;-82
2023/05/25 11:06:31;;;;;;;;;;;;;;;;;;5076944;28;19935;-81
2023/05/25 11:08:59;;;;;;;;;;;;;;;;;;5094414;27;20368;-81
2023/05/25 11:11:26;;;;;;;;;;;;;;;;;;5081966;28;19935;-82
2023/05/25 11:13:54;;;;;;;;;;;;;;;;;;5084930;27;20612;-80
2023/05/25 11:16:29;;;;;;;;;;;;;;;;;;5085570;27;19928;-81
2023/05/25 11:18:57;;;;;;;;;;;;;;;;;;5080083;28;19935;-81
2023/05/25 11:21:25;;;;;;;;;;;;;;;;;;5085961;27;19935;-79
2023/05/25 11:23:53;;;;;;;;;;;;;;;;;;5076179;28;19942;-79
2023/05/25 11:26:21;;;;;;;;;;;;;;;;;;5083495;28;19927;-81
2023/05/25 11:28:48;;;;;;;;;;;;;;;;;;5075000;28;19928;-79
2023/05/25 11:31:16;;;;;;;;;;;;;;;;;;5087936;28;20843;-80
2023/05/25 11:33:44;;;;;;;;;;;;;;;;;;5085749;28;19931;-79
2023/05/25 11:36:11;;;;;;;;;;;;;;;;;;5079550;28;20277;-80
2023/05/25 11:38:40;;;;;;;;;;;;;;;;;;5075689;27;19928;-78
2023/05/25 11:41:07;;;;;;;;;;;;;;;;;;5090115;28;19926;-78
2023/05/25 11:43:41;;;;;;;;;;;;;;;;;;5088069;28;19938;-79
2023/05/25 11:46:09;;;;;;;;;;;;;;;;;;5090777;27;19928;-80
2023/05/25 11:48:37;;;;;;;;;;;;;;;;;;5078250;28;19927;-78
2023/05/25 11:51:04;;;;;;;;;;;;;;;;;;5079786;28;19927;-77
2023/05/25 11:53:32;;;;;;;;;;;;;;;;;;5087463;28;19931;-78
2023/05/25 11:56:00;;;;;;;;;;;;;;;;;;5093669;28;21157;-78
2023/05/25 11:58:27;;;;;;;;;;;;;;;;;;5080802;28;20858;-78
2023/05/25 12:00:55;;;;;;;;;;;;;;;;;;5075629;28;19939;-75
2023/05/25 12:03:22;;;;;;;;;;;;;;;;;;5075594;28;19927;-80
2023/05/25 12:05:50;;;;;;;;;;;;;;;;;;5086497;27;19920;-78
2023/05/25 12:08:17;;;;;;;;;;;;;;;;;;5078000;28;19950;-80
2023/05/25 12:10:45;;;;;;;;;;;;;;;;;;5072893;28;19928;-79
2023/05/25 12:13:13;;;;;;;;;;;;;;;;;;5073765;28;19950;-80
2023/05/25 12:15:43;;;;;;;;;;;;;;;;;;5087620;28;19927;-76
2023/05/25 12:18:10;;;;;;;;;;;;;;;;;;5085500;27;20300;-80
2023/05/25 12:20:40;;;;;;;;;;;;;;;;;;5052815;27;19951;-81
2023/05/25 12:23:07;;;;;;;;;;;;;;;;;;5075006;28;20758;-80
2023/05/25 12:25:35;;;;;;;;;;;;;;;;;;5083007;28;19927;-78
2023/05/25 12:28:02;;;;;;;;;;;;;;;;;;5077747;28;19923;-78
2023/05/25 12:30:30;;;;;;;;;;;;;;;;;;5084133;28;19941;-79
2023/05/25 12:32:58;;;;;;;;;;;;;;;;;;5078482;28;20099;-77
2023/05/25 12:35:32;;;;;;;;;;;;;;;;;;5051313;28;20556;-78
2023/05/25 12:37:59;;;;;;;;;;;;;;;;;;5072895;28;19927;-79
2023/05/25 12:40:27;;;;;;;;;;;;;;;;;;5071624;28;19927;-79
2023/05/25 12:42:55;;;;;;;;;;;;;;;;;;5068555;28;19953;-80
2023/05/25 12:45:22;;;;;;;;;;;;;;;;;;5077420;28;19934;-79
2023/05/25 12:47:55;;;;;;;;;;;;;;;;;;5080952;28;19935;-77
2023/05/25 12:50:28;;;;;;;;;;;;;;;;;;5075122;28;19920;-80
2023/05/25 12:53:00;;;;;;;;;;;;;;;;;;5079877;28;20367;-79
2023/05/25 12:55:28;;;;;;;;;;;;;;;;;;5092221;27;20743;-80
2023/05/25 12:57:57;;;;;;;;;;;;;;;;;;5087506;27;19928;-81
2023/05/25 13:00:24;;;;;;;;;;;;;;;;;;5073805;28;20303;-79
2023/05/25 13:02:52;;;;;;;;;;;;;;;;;;5084469;27;19930;-78
2023/05/25 13:05:19;;;;;;;;;;;;;;;;;;5067387;28;20305;-77
2023/05/25 13:07:47;;;;;;;;;;;;;;;;;;5081741;28;19934;-81
2023/05/25 13:10:16;;;;;;;;;;;;;;;;;;5067799;27;19927;-79
2023/05/25 13:12:48;;;;;;;;;;;;;;;;;;5072510;28;20564;-79
2023/05/25 13:15:21;;;;;;;;;;;;;;;;;;5072960;28;20651;-77
2023/05/25 13:17:49;;;;;;;;;;;;;;;;;;5072877;27;19928;-80
2023/05/25 13:20:16;;;;;;;;;;;;;;;;;;5073661;28;19935;-81
2023/05/25 13:22:44;;;;;;;;;;;;;;;;;;5086979;27;19935;-75
2023/05/25 13:25:12;;;;;;;;;;;;;;;;;;5072127;28;19962;-78
2023/05/25 13:27:44;;;;;;;;;;;;;;;;;;5090581;28;20473;-76
2023/05/25 13:30:12;;;;;;;;;;;;;;;;;;5080831;27;19928;-77
2023/05/25 13:32:41;;;;;;;;;;;;;;;;;;5072920;28;19935;-79
2023/05/25 13:35:11;;;;;;;;;;;;;;;;;;5067460;28;19928;-79
2023/05/25 13:37:39;;;;;;;;;;;;;;;;;;5061314;28;19935;-78
2023/05/25 13:40:06;;;;;;;;;;;;;;;;;;5073769;28;19985;-80
2023/05/25 13:42:34;;;;;;;;;;;;;;;;;;5071095;28;19928;-78
2023/05/25 13:45:01;;;;;;;;;;;;;;;;;;5079044;28;20541;-76
2023/05/25 13:47:29;;;;;;;;;;;;;;;;;;5070464;28;19920;-77
2023/05/25 13:50:02;;;;;;;;;;;;;;;;;;5070090;28;19934;-80
2023/05/25 13:52:36;;;;;;;;;;;;;;;;;;5077980;27;19924;-81
2023/05/25 13:55:04;;;;;;;;;;;;;;;;;;5080753;28;19931;-80
2023/05/25 13:57:32;;;;;;;;;;;;;;;;;;5080476;28;20945;-79
2023/05/25 14:00:00;;;;;;;;;;;;;;;;;;5094848;28;19932;-81
2023/05/25 14:02:33;;;;;;;;;;;;;;;;;;5087077;28;19932;-80
2023/05/25 14:05:01;;;;;;;;;;;;;;;;;;5090655;27;20447;-82
2023/05/25 14:07:28;;;;;;;;;;;;;;;;;;5078644;28;19968;-80
2023/05/25 14:09:56;;;;;;;;;;;;;;;;;;5085537;28;19935;-76
2023/05/25 14:12:23;;;;;;;;;;;;;;;;;;5083676;28;19955;-79
2023/05/25 14:14:51;;;;;;;;;;;;;;;;;;5082040;28;19939;-78
2023/05/25 14:17:20;;;;;;;;;;;;;;;;;;5087240;28;19939;-79
2023/05/25 14:19:47;;;;;;;;;;;;;;;;;;5069376;28;19939;-77
2023/05/25 14:22:15;;;;;;;;;;;;;;;;;;5058644;28;20109;-81
2023/05/25 14:24:48;;;;;;;;;;;;;;;;;;5067857;28;19962;-79
2023/05/25 14:27:19;;;;;;;;;;;;;;;;;;5056254;28;19932;-80
2023/05/25 14:29:47;;;;;;;;;;;;;;;;;;5058436;28;19932;-79
2023/05/25 14:32:15;;;;;;;;;;;;;;;;;;5062294;28;19933;-79
2023/05/25 14:34:43;;;;;;;;;;;;;;;;;;5070375;28;20601;-77
2023/05/25 14:37:15;;;;;;;;;;;;;;;;;;5055241;28;19932;-76
2023/05/25 14:39:43;;;;;;;;;;;;;;;;;;5074132;27;19932;-80
2023/05/25 14:42:16;;;;;;;;;;;;;;;;;;5008479;27;19940;-80
2023/05/25 14:44:43;;;;;;;;;;;;;;;;;;5006977;28;19933;-79
2023/05/25 14:47:11;;;;;;;;;;;;;;;;;;5033929;28;19941;-80
2023/05/25 14:49:43;;;;;;;;;;;;;;;;;;4995110;28;19929;-80
2023/05/25 14:52:11;;;;;;;;;;;;;;;;;;5032178;28;21396;-78
2023/05/25 14:54:43;;;;;;;12.95;2.40;;;;;;;;;;5002010;28;19940;-79
2023/05/25 14:57:16;;;;;;;13.63;3.30;;;;;;;;;;5001639;28;20053;-78
2023/05/25 14:59:44;;;;;;;15.68;3.42;;;;;;;;;;5003396;28;20053;-78
2023/05/25 15:02:11;;;;;;;12.15;2.90;;;;;;;;;;5028953;28;20054;-77
2023/05/25 15:04:39;;;;;;;12.02;2.90;;;;;;;;;;4994419;28;20299;-76
2023/05/25 15:07:13;;;;;;;13.63;3.10;;;;;;;;;;4992783;28;20056;-76
2023/05/25 15:09:47;;;;;;;11.30;2.33;;;;;;;;;;5001541;28;20054;-80
2023/05/25 15:12:15;;;;;;;14.75;3.10;;;;;;;;;;4988207;28;20056;-80
2023/05/25 15:14:48;;;;;;;11.10;3.08;;;;;;;;;;4985092;28;20050;-80
2023/05/25 15:17:21;;;;;;;15.55;3.47;;;;;;;;;;4985261;28;20418;-80
2023/05/25 15:19:49;;;;;;;12.45;2.72;;;;;;;;;;4996115;28;20061;-78
2023/05/25 15:22:17;;;;;;;16.63;3.33;;;;;;;;;;4987924;28;20064;-79
2023/05/25 15:24:44;;;;;;;12.80;3.17;;;;;;;;;;5001342;28;20062;-82
2023/05/25 15:27:14;;;;;;;14.75;3.40;;;;;;;;;;4985352;28;20058;-76
2023/05/25 15:29:42;;;;;;;16.73;3.53;;;;;;;;;;4988625;28;20587;-79
2023/05/25 15:32:11;;;;;;;13.32;3.08;;;;;;;;;;4982817;28;20050;-78
2023/05/25 15:34:39;;;;;;;10.95;2.22;;;;;;;;;;5011755;28;20441;-79
2023/05/25 15:37:07;;;;;;;13.63;2.65;;;;;;;;;;4988012;28;20524;-79
2023/05/25 15:39:35;;;;;;;11.48;2.70;;;;;;;;;;4986596;28;20060;-78
2023/05/25 15:42:08;;;;;;;12.50;2.33;;;;;;;;;;5023126;28;20056;-79
2023/05/25 15:44:43;;;;;;;9.38;2.40;;;;;;;;;;4984523;28;21296;-77
2023/05/25 15:47:15;;;;;;;13.00;2.90;;;;;;;;;;4985129;28;20048;-80
2023/05/25 15:49:43;;;;;;;9.25;2.40;;;;;;;;;;5040151;28;20065;-77
2023/05/25 15:52:11;;;;;;;14.18;2.85;;;;;;;;;;5018370;28;20056;-79
2023/05/25 15:54:44;;;;;;;15.93;3.42;;;;;;;;;;5024326;28;20061;-78
2023/05/25 15:57:17;;;;;;;13.75;3.10;;;;;;;;;;5014240;28;20071;-78
2023/05/25 15:59:52;;;;;;;9.80;2.40;;;;;;;;;;5020578;28;21652;-77
2023/05/25 16:02:20;;;;;;;13.68;3.00;;;;;;;;;;5022614;28;20053;-79
2023/05/25 16:04:47;;;;;;;13.52;2.25;;;;;;;;;;5021010;28;20718;-80
2023/05/25 16:07:20;;;;;;;8.10;2.95;;;;;;;;;;5004414;28;20071;-78
2023/05/25 16:09:53;;;;;;;12.95;3.10;;;;;;;;;;5030462;28;20065;-80
2023/05/25 16:12:27;;;;;;;18.98;3.17;;;;;;;;;;4996968;28;20060;-82
2023/05/25 16:15:01;;;;;;;12.23;3.28;;;;;;;;;;5004585;28;20070;-78
2023/05/25 16:17:29;;;;;;;11.45;3.13;;;;;;;;;;5001700;28;20061;-82
2023/05/25 16:20:01;;;;;;;11.45;2.80;;;;;;;;;;5037842;28;20056;-78
2023/05/25 16:22:34;;;;;;;11.32;2.83;;;;;;;;;;5020084;28;20683;-79
2023/05/25 16:25:02;;;;;;;12.75;2.83;;;;;;;;;;5029481;28;20053;-79
2023/05/25 16:27:30;;;;;;;13.55;2.83;;;;;;;;;;5019110;28;20049;-76
2023/05/25 16:29:58;;;;;;;15.05;2.80;;;;;;;;;;5001122;28;20065;-80
2023/05/25 16:32:27;;;;;;;11.27;2.45;;;;;;;;;;5026686;28;20559;-79
2023/05/25 16:35:00;;;;;;;11.20;2.50;;;;;;;;;;4998477;28;20067;-79
2023/05/25 16:37:28;;;;;;;15.27;2.95;;;;;;;;;;5017162;28;20049;-79
2023/05/25 16:39:56;;;;;;;12.30;3.05;;;;;;;;;;4998276;28;20065;-78
2023/05/25 16:42:25;;;;;;;9.40;2.25;;;;;;;;;;5021544;28;20060;-78